createdAt,value
2023-05-22T00:00:13.524Z,15.70
2023-05-22T00:03:03.790Z,15.69
2023-05-22T00:05:34.606Z,15.67
2023-05-22T00:08:03.085Z,15.65
2023-05-22T00:10:31.397Z,15.63
2023-05-22T00:12:59.718Z,15.64
2023-05-22T00:15:27.850Z,15.59
2023-05-22T00:17:56.062Z,15.53
2023-05-22T00:20:24.141Z,15.56
2023-05-22T00:22:52.500Z,15.54
2023-05-22T00:25:20.588Z,15.45
2023-05-22T00:27:49.067Z,15.39
2023-05-22T00:30:16.989Z,15.37
2023-05-22T00:32:45.517Z,15.35
2023-05-22T00:35:13.716Z,15.33
2023-05-22T00:37:41.818Z,15.33
2023-05-22T00:40:10.209Z,15.31
2023-05-22T00:42:38.165Z,15.35
2023-05-22T00:45:06.943Z,15.41
2023-05-22T00:47:35.073Z,15.43
2023-05-22T00:50:04.522Z,15.41
2023-05-22T00:52:33.108Z,15.39
2023-05-22T00:55:01.539Z,15.37
2023-05-22T00:57:30.581Z,15.30
2023-05-22T00:59:59.294Z,15.27
2023-05-22T01:02:28.453Z,15.19
2023-05-22T01:04:57.912Z,15.11
2023-05-22T01:07:26.069Z,15.04
2023-05-22T01:09:56.171Z,15.03
2023-05-22T01:12:50.408Z,15.02
2023-05-22T01:15:32.096Z,14.99
2023-05-22T01:18:06.913Z,14.91
2023-05-22T01:20:38.195Z,14.86
2023-05-22T01:23:16.304Z,14.88
2023-05-22T01:25:47.682Z,14.90
2023-05-22T01:28:21.349Z,14.92
2023-05-22T01:31:04.971Z,14.93
2023-05-22T01:33:36.512Z,14.94
2023-05-22T01:36:07.343Z,14.82
2023-05-22T01:38:36.324Z,14.79
2023-05-22T01:41:04.883Z,14.80
2023-05-22T01:43:32.840Z,14.78
2023-05-22T01:46:02.064Z,14.63
2023-05-22T01:48:30.158Z,14.57
2023-05-22T01:51:03.816Z,14.46
2023-05-22T01:53:42.406Z,14.40
2023-05-22T01:56:14.688Z,14.44
2023-05-22T01:58:52.935Z,14.38
2023-05-22T02:01:22.685Z,14.31
2023-05-22T02:03:56.640Z,14.33
2023-05-22T02:06:32.437Z,14.27
2023-05-22T02:09:02.931Z,14.21
2023-05-22T02:11:32.611Z,14.08
2023-05-22T02:14:02.011Z,13.96
2023-05-22T02:16:30.373Z,13.92
2023-05-22T02:19:06.496Z,13.93
2023-05-22T02:21:36.035Z,13.97
2023-05-22T02:24:05.707Z,13.91
2023-05-22T02:26:33.713Z,13.94
2023-05-22T02:29:01.899Z,14.02
2023-05-22T02:31:29.952Z,14.13
2023-05-22T02:33:58.231Z,14.18
2023-05-22T02:36:26.422Z,14.17
2023-05-22T02:38:55.742Z,14.10
2023-05-22T02:41:24.128Z,14.16
2023-05-22T02:43:52.221Z,14.13
2023-05-22T02:46:20.878Z,14.09
2023-05-22T02:48:49.313Z,14.12
2023-05-22T02:51:17.565Z,14.14
2023-05-22T02:53:45.592Z,14.11
2023-05-22T02:56:13.558Z,14.05
2023-05-22T02:58:41.961Z,14.09
2023-05-22T03:01:10.585Z,14.22
2023-05-22T03:03:38.752Z,14.30
2023-05-22T03:06:09.052Z,14.51
2023-05-22T03:08:41.724Z,14.84
2023-05-22T03:11:10.337Z,15.22
2023-05-22T03:13:38.588Z,15.60
2023-05-22T03:16:07.084Z,15.75
2023-05-22T03:18:36.484Z,15.90
2023-05-22T03:21:04.796Z,16.25
2023-05-22T03:23:32.931Z,16.60
2023-05-22T03:26:00.877Z,17.03
2023-05-22T03:28:30.750Z,17.21
2023-05-22T03:30:58.910Z,17.48
2023-05-22T03:33:29.152Z,17.90
2023-05-22T03:35:57.596Z,18.14
2023-05-22T03:38:26.423Z,18.60
2023-05-22T03:40:54.981Z,18.71
2023-05-22T03:43:23.040Z,18.56
2023-05-22T03:45:51.625Z,18.50
2023-05-22T03:48:20.355Z,18.47
2023-05-22T03:50:48.322Z,18.28
2023-05-22T03:53:16.402Z,18.14
2023-05-22T03:55:44.581Z,17.99
2023-05-22T03:58:12.587Z,17.81
2023-05-22T04:00:40.708Z,17.55
2023-05-22T04:03:13.375Z,17.36
2023-05-22T04:05:41.654Z,17.37
2023-05-22T04:08:11.666Z,17.39
2023-05-22T04:10:41.267Z,17.50
2023-05-22T04:13:09.549Z,18.23
2023-05-22T04:15:37.503Z,18.52
2023-05-22T04:18:05.941Z,18.38
2023-05-22T04:20:34.176Z,18.31
2023-05-22T04:23:02.235Z,18.21
2023-05-22T04:25:31.738Z,18.16
2023-05-22T04:28:02.379Z,18.44
2023-05-22T04:30:34.134Z,19.25
2023-05-22T04:33:06.439Z,20.65
2023-05-22T04:35:35.465Z,21.97
2023-05-22T04:38:06.840Z,22.88
2023-05-22T04:40:34.856Z,22.91
2023-05-22T04:43:03.663Z,23.04
2023-05-22T04:45:33.460Z,23.71
2023-05-22T04:48:02.840Z,24.23
2023-05-22T04:50:36.230Z,24.47
2023-05-22T04:53:06.023Z,24.79
2023-05-22T04:55:34.497Z,25.25
2023-05-22T04:58:02.980Z,25.55
2023-05-22T05:00:31.227Z,25.99
2023-05-22T05:03:00.717Z,26.45
2023-05-22T05:05:28.859Z,26.77
2023-05-22T05:07:57.044Z,27.05
2023-05-22T05:10:25.474Z,27.50
2023-05-22T05:12:54.368Z,27.71
2023-05-22T05:15:23.980Z,27.76
2023-05-22T05:17:52.221Z,27.80
2023-05-22T05:20:20.377Z,28.08
2023-05-22T05:22:48.624Z,28.60
2023-05-22T05:25:18.518Z,28.94
2023-05-22T05:27:46.745Z,29.16
2023-05-22T05:30:16.181Z,29.46
2023-05-22T05:33:10.664Z,29.70
2023-05-22T05:35:59.143Z,30.19
2023-05-22T05:38:27.488Z,30.46
2023-05-22T05:40:56.327Z,30.86
2023-05-22T05:43:25.659Z,30.85
2023-05-22T05:45:57.363Z,30.92
2023-05-22T05:48:25.679Z,31.12
2023-05-22T05:50:53.893Z,31.41
2023-05-22T05:53:22.585Z,31.80
2023-05-22T05:55:56.419Z,32.08
2023-05-22T05:58:24.543Z,32.09
2023-05-22T06:01:01.673Z,32.20
2023-05-22T06:03:29.963Z,32.33
2023-05-22T06:06:05.477Z,32.33
2023-05-22T06:08:56.522Z,32.28
2023-05-22T06:11:28.949Z,32.48
2023-05-22T06:13:57.217Z,32.68
2023-05-22T06:16:26.355Z,32.54
2023-05-22T06:18:54.498Z,32.53
2023-05-22T06:21:23.363Z,32.62
2023-05-22T06:23:51.807Z,32.76
2023-05-22T06:26:22.098Z,32.80
2023-05-22T06:28:51.910Z,32.94
2023-05-22T06:31:20.342Z,32.71
2023-05-22T06:33:49.511Z,32.91
2023-05-22T06:36:19.247Z,32.77
2023-05-22T06:38:49.672Z,32.76
2023-05-22T06:41:40.732Z,32.66
2023-05-22T06:44:09.598Z,32.66
2023-05-22T06:46:39.870Z,32.79
2023-05-22T06:49:08.420Z,32.24
2023-05-22T06:51:42.122Z,31.98
2023-05-22T06:54:12.552Z,32.31
2023-05-22T06:56:41.515Z,32.37
2023-05-22T06:59:14.274Z,32.28
2023-05-22T07:02:01.157Z,32.40
2023-05-22T07:04:54.925Z,32.86
2023-05-22T07:07:29.963Z,33.09
2023-05-22T07:09:58.462Z,33.14
2023-05-22T07:12:28.798Z,33.09
2023-05-22T07:14:57.929Z,32.98
2023-05-22T07:17:26.683Z,33.12
2023-05-22T07:19:56.141Z,33.34
2023-05-22T07:22:24.426Z,33.36
2023-05-22T07:24:52.556Z,33.38
2023-05-22T07:27:20.850Z,33.32
2023-05-22T07:29:49.803Z,33.43
2023-05-22T07:32:18.510Z,33.63
2023-05-22T07:34:47.096Z,33.53
2023-05-22T07:37:15.508Z,33.57
2023-05-22T07:39:46.699Z,33.48
2023-05-22T07:42:15.403Z,33.14
2023-05-22T07:44:49.329Z,32.84
2023-05-22T07:47:18.625Z,32.51
2023-05-22T07:49:46.984Z,32.38
2023-05-22T07:52:15.186Z,32.34
2023-05-22T07:54:45.252Z,30.32
2023-05-22T07:57:15.716Z,29.49
2023-05-22T07:59:44.272Z,29.84
2023-05-22T08:02:12.654Z,28.94
2023-05-22T08:04:41.366Z,28.81
2023-05-22T08:07:09.491Z,28.01
2023-05-22T08:09:37.695Z,27.76
2023-05-22T08:12:07.673Z,27.78
2023-05-22T08:14:35.986Z,27.99
2023-05-22T08:17:04.480Z,26.67
2023-05-22T08:19:33.271Z,26.46
2023-05-22T08:22:01.582Z,26.12
2023-05-22T08:24:30.673Z,25.47
2023-05-22T08:27:00.828Z,24.75
2023-05-22T08:29:29.340Z,24.97
2023-05-22T08:31:58.409Z,24.77
2023-05-22T08:34:26.674Z,25.22
2023-05-22T08:36:54.699Z,25.68
2023-05-22T08:39:22.813Z,25.56
2023-05-22T08:41:51.090Z,26.67
2023-05-22T08:44:20.234Z,27.58
2023-05-22T08:46:49.625Z,27.88
2023-05-22T08:49:18.735Z,28.46
2023-05-22T08:51:48.622Z,28.47
2023-05-22T08:54:19.743Z,28.34
2023-05-22T08:56:56.729Z,29.23
2023-05-22T08:59:25.636Z,28.55
2023-05-22T09:01:54.089Z,27.00
2023-05-22T09:04:24.333Z,27.13
2023-05-22T09:06:53.261Z,27.80
2023-05-22T09:09:21.317Z,27.52
2023-05-22T09:11:49.669Z,27.40
2023-05-22T09:14:18.878Z,27.20
2023-05-22T09:16:47.625Z,26.92
2023-05-22T09:19:16.256Z,26.81
2023-05-22T09:21:44.712Z,27.32
2023-05-22T09:24:12.856Z,27.54
2023-05-22T09:26:41.335Z,27.65
2023-05-22T09:29:09.742Z,28.27
2023-05-22T09:31:44.809Z,28.29
2023-05-22T09:34:17.863Z,28.27
2023-05-22T09:36:46.493Z,27.72
2023-05-22T09:39:14.677Z,27.62
2023-05-22T09:41:44.433Z,27.16
2023-05-22T09:44:14.133Z,27.43
2023-05-22T09:46:44.297Z,28.13
2023-05-22T09:49:15.758Z,28.42
2023-05-22T09:51:48.084Z,28.03
2023-05-22T09:54:17.598Z,28.42
2023-05-22T09:56:48.844Z,27.63
2023-05-22T09:59:20.910Z,27.47
2023-05-22T10:01:50.375Z,28.13
2023-05-22T10:04:18.685Z,28.83
2023-05-22T10:06:50.568Z,28.96
2023-05-22T10:09:20.258Z,27.71
2023-05-22T10:11:50.376Z,28.22
2023-05-22T10:14:18.621Z,28.82
2023-05-22T10:16:47.099Z,29.27
2023-05-22T10:19:15.497Z,29.11
2023-05-22T10:21:43.794Z,28.84
2023-05-22T10:24:12.491Z,28.21
2023-05-22T10:26:41.019Z,28.49
2023-05-22T10:29:13.026Z,28.41
2023-05-22T10:31:59.527Z,28.27
2023-05-22T10:34:47.669Z,28.38
2023-05-22T10:37:26.466Z,28.26
2023-05-22T10:39:54.415Z,28.50
2023-05-22T10:42:22.531Z,28.92
2023-05-22T10:44:50.985Z,29.06
2023-05-22T10:47:20.034Z,29.01
2023-05-22T10:49:49.829Z,29.30
2023-05-22T10:52:21.986Z,29.58
2023-05-22T10:54:54.550Z,29.71
2023-05-22T10:57:24.401Z,29.80
2023-05-22T11:00:06.083Z,29.80
2023-05-22T11:02:38.366Z,29.98
2023-05-22T11:05:18.807Z,29.97
2023-05-22T11:07:47.489Z,30.17
2023-05-22T11:10:25.878Z,30.40
2023-05-22T11:13:11.233Z,30.29
2023-05-22T11:15:45.261Z,29.78
2023-05-22T11:18:14.741Z,29.41
2023-05-22T11:20:44.471Z,29.54
2023-05-22T11:23:12.587Z,29.37
2023-05-22T11:25:41.608Z,28.95
2023-05-22T11:28:11.568Z,28.59
2023-05-22T11:30:39.957Z,29.13
2023-05-22T11:33:08.353Z,29.59
2023-05-22T11:35:37.815Z,29.45
2023-05-22T11:38:07.347Z,29.74
2023-05-22T11:40:35.655Z,30.23
2023-05-22T11:43:04.806Z,30.07
2023-05-22T11:45:37.154Z,29.43
2023-05-22T11:48:05.301Z,28.94
2023-05-22T11:50:42.252Z,28.87
2023-05-22T11:53:11.134Z,28.82
2023-05-22T11:55:39.205Z,29.02
2023-05-22T11:58:07.184Z,29.36
2023-05-22T12:00:35.201Z,29.60
2023-05-22T12:03:04.269Z,29.78
2023-05-22T12:05:32.729Z,29.75
2023-05-22T12:08:01.093Z,29.42
2023-05-22T12:10:29.179Z,29.20
2023-05-22T12:12:57.156Z,29.17
2023-05-22T12:15:25.684Z,29.26
2023-05-22T12:17:57.092Z,29.16
2023-05-22T12:20:29.647Z,29.40
2023-05-22T12:22:59.020Z,29.43
2023-05-22T12:25:33.585Z,29.00
2023-05-22T12:28:01.785Z,28.72
2023-05-22T12:30:39.537Z,28.78
2023-05-22T12:33:12.725Z,28.65
2023-05-22T12:35:41.520Z,28.28
2023-05-22T12:38:11.007Z,28.15
2023-05-22T12:40:39.467Z,28.34
2023-05-22T12:43:08.236Z,28.58
2023-05-22T12:45:36.855Z,28.78
2023-05-22T12:48:04.929Z,28.76
2023-05-22T12:50:32.925Z,28.90
2023-05-22T12:53:03.790Z,28.99
2023-05-22T12:55:32.753Z,28.94
2023-05-22T12:58:01.097Z,28.81
2023-05-22T13:00:29.097Z,28.05
2023-05-22T13:02:57.501Z,27.58
2023-05-22T13:05:25.850Z,27.63
2023-05-22T13:07:54.142Z,27.79
2023-05-22T13:10:22.247Z,27.87
2023-05-22T13:12:51.695Z,27.84
2023-05-22T13:15:19.896Z,27.80
2023-05-22T13:17:47.867Z,27.27
2023-05-22T13:20:16.028Z,27.00
2023-05-22T13:22:44.357Z,27.20
2023-05-22T13:25:13.678Z,27.31
2023-05-22T13:27:41.908Z,27.15
2023-05-22T13:30:10.338Z,26.91
2023-05-22T13:32:38.758Z,26.84
2023-05-22T13:35:07.221Z,27.04
2023-05-22T13:37:35.247Z,27.29
2023-05-22T13:40:03.564Z,27.53
2023-05-22T13:42:31.659Z,27.74
2023-05-22T13:44:59.974Z,27.82
2023-05-22T13:47:28.159Z,27.99
2023-05-22T13:49:56.240Z,28.00
2023-05-22T13:52:24.217Z,27.86
2023-05-22T13:54:52.408Z,27.85
2023-05-22T13:57:20.385Z,27.85
2023-05-22T13:59:48.362Z,27.96
2023-05-22T14:02:16.361Z,27.87
2023-05-22T14:04:45.453Z,27.85
2023-05-22T14:07:15.781Z,27.94
2023-05-22T14:09:43.771Z,28.09
2023-05-22T14:12:11.927Z,27.94
2023-05-22T14:14:40.068Z,27.81
2023-05-22T14:17:09.106Z,27.48
2023-05-22T14:19:38.517Z,27.51
2023-05-22T14:22:06.808Z,27.67
2023-05-22T14:24:35.109Z,27.84
2023-05-22T14:27:03.180Z,27.82
2023-05-22T14:29:31.218Z,27.84
2023-05-22T14:32:04.311Z,27.76
2023-05-22T14:34:32.523Z,27.64
2023-05-22T14:37:00.470Z,27.54
2023-05-22T14:39:28.882Z,27.43
2023-05-22T14:41:56.956Z,27.32
2023-05-22T14:44:25.035Z,27.32
2023-05-22T14:46:53.718Z,27.22
2023-05-22T14:49:21.709Z,27.21
2023-05-22T14:51:49.721Z,27.17
2023-05-22T14:54:19.243Z,27.11
2023-05-22T14:56:47.445Z,27.10
2023-05-22T14:59:15.509Z,27.07
2023-05-22T15:01:43.676Z,27.03
2023-05-22T15:04:11.933Z,26.99
2023-05-22T15:06:40.084Z,26.76
2023-05-22T15:09:08.786Z,26.61
2023-05-22T15:11:37.125Z,26.58
2023-05-22T15:14:05.232Z,26.56
2023-05-22T15:16:33.418Z,26.56
2023-05-22T15:19:01.435Z,26.42
2023-05-22T15:21:29.723Z,26.33
2023-05-22T15:23:58.913Z,26.28
2023-05-22T15:26:26.926Z,26.37
2023-05-22T15:29:01.185Z,26.42
2023-05-22T15:31:30.315Z,26.33
2023-05-22T15:33:58.559Z,26.18
2023-05-22T15:36:27.173Z,25.96
2023-05-22T15:38:55.762Z,25.96
2023-05-22T15:41:23.757Z,25.99
2023-05-22T15:43:54.996Z,25.95
2023-05-22T15:46:23.001Z,25.78
2023-05-22T15:48:51.341Z,25.78
2023-05-22T15:51:19.307Z,25.79
2023-05-22T15:53:47.277Z,25.63
2023-05-22T15:56:15.331Z,25.57
2023-05-22T15:58:43.402Z,25.59
2023-05-22T16:01:12.405Z,25.60
2023-05-22T16:03:40.581Z,25.52
2023-05-22T16:06:08.657Z,25.47
2023-05-22T16:08:37.030Z,25.39
2023-05-22T16:11:05.089Z,25.32
2023-05-22T16:13:33.339Z,25.19
2023-05-22T16:16:03.494Z,24.96
2023-05-22T16:18:31.975Z,24.73
2023-05-22T16:20:59.899Z,24.53
2023-05-22T16:23:27.936Z,24.37
2023-05-22T16:25:56.077Z,24.18
2023-05-22T16:28:24.024Z,24.02
2023-05-22T16:30:52.144Z,23.97
2023-05-22T16:33:20.268Z,23.94
2023-05-22T16:35:48.360Z,23.83
2023-05-22T16:38:16.528Z,23.69
2023-05-22T16:40:44.450Z,23.60
2023-05-22T16:43:13.913Z,23.56
2023-05-22T16:45:46.757Z,23.44
2023-05-22T16:48:14.968Z,23.34
2023-05-22T16:50:44.226Z,23.25
2023-05-22T16:53:12.798Z,23.20
2023-05-22T16:55:41.209Z,23.10
2023-05-22T16:58:11.730Z,23.03
2023-05-22T17:00:40.443Z,22.98
2023-05-22T17:03:09.288Z,22.89
2023-05-22T17:05:38.411Z,22.80
2023-05-22T17:08:07.084Z,22.72
2023-05-22T17:10:35.558Z,22.69
2023-05-22T17:13:03.817Z,22.59
2023-05-22T17:15:31.862Z,22.48
2023-05-22T17:17:59.916Z,22.39
2023-05-22T17:20:29.509Z,22.32
2023-05-22T17:22:57.904Z,22.25
2023-05-22T17:25:26.019Z,22.18
2023-05-22T17:27:53.959Z,22.13
2023-05-22T17:30:21.922Z,22.07
2023-05-22T17:32:53.519Z,21.97
2023-05-22T17:35:21.725Z,21.86
2023-05-22T17:37:49.856Z,21.76
2023-05-22T17:40:18.642Z,21.69
2023-05-22T17:42:47.003Z,21.57
2023-05-22T17:45:15.532Z,21.38
2023-05-22T17:47:43.614Z,21.21
2023-05-22T17:50:12.661Z,21.09
2023-05-22T17:52:41.268Z,20.98
2023-05-22T17:55:09.605Z,20.88
2023-05-22T17:57:37.817Z,20.70
2023-05-22T18:00:09.676Z,20.61
2023-05-22T18:02:40.765Z,20.48
2023-05-22T18:05:09.464Z,20.38
2023-05-22T18:07:37.679Z,20.30
2023-05-22T18:10:06.203Z,20.19
2023-05-22T18:12:35.988Z,20.03
2023-05-22T18:15:08.609Z,19.85
2023-05-22T18:17:36.971Z,19.68
2023-05-22T18:20:08.521Z,19.63
2023-05-22T18:22:37.418Z,19.57
2023-05-22T18:25:06.714Z,19.50
2023-05-22T18:27:34.878Z,19.41
2023-05-22T18:30:03.633Z,19.35
2023-05-22T18:32:32.154Z,19.34
2023-05-22T18:35:02.542Z,19.32
2023-05-22T18:37:30.994Z,19.28
2023-05-22T18:39:59.038Z,19.23
2023-05-22T18:42:27.350Z,19.22
2023-05-22T18:44:55.763Z,19.21
2023-05-22T18:47:24.104Z,19.18
2023-05-22T18:49:52.481Z,19.12
2023-05-22T18:52:20.539Z,19.07
2023-05-22T18:54:48.689Z,19.04
2023-05-22T18:57:16.841Z,18.96
2023-05-22T18:59:46.194Z,18.81
2023-05-22T19:02:17.052Z,18.74
2023-05-22T19:04:45.683Z,18.71
2023-05-22T19:07:14.024Z,18.67
2023-05-22T19:09:42.306Z,18.63
2023-05-22T19:12:10.546Z,18.58
2023-05-22T19:14:38.804Z,18.52
2023-05-22T19:17:06.823Z,18.49
2023-05-22T19:19:34.871Z,18.41
2023-05-22T19:22:03.007Z,18.35
2023-05-22T19:24:31.300Z,18.28
2023-05-22T19:26:59.490Z,18.22
2023-05-22T19:29:27.458Z,18.17
2023-05-22T19:31:55.476Z,18.12
2023-05-22T19:34:23.420Z,18.10
2023-05-22T19:36:52.312Z,18.08
2023-05-22T19:39:20.235Z,18.06
2023-05-22T19:41:48.462Z,18.02
2023-05-22T19:44:17.244Z,18.01
2023-05-22T19:46:45.312Z,17.99
2023-05-22T19:49:13.646Z,17.97
2023-05-22T19:51:42.012Z,17.89
2023-05-22T19:54:10.022Z,17.80
2023-05-22T19:56:38.357Z,17.72
2023-05-22T19:59:06.312Z,17.64
2023-05-22T20:01:34.459Z,17.58
2023-05-22T20:04:02.834Z,17.49
2023-05-22T20:06:33.720Z,17.41
2023-05-22T20:09:02.047Z,17.32
2023-05-22T20:11:30.327Z,17.24
2023-05-22T20:13:58.651Z,17.16
2023-05-22T20:16:29.265Z,17.09
2023-05-22T20:18:57.654Z,17.03
2023-05-22T20:21:25.811Z,16.97
2023-05-22T20:23:55.646Z,16.92
2023-05-22T20:26:23.795Z,16.90
2023-05-22T20:28:52.226Z,16.86
2023-05-22T20:31:20.182Z,16.85
2023-05-22T20:33:48.623Z,16.83
2023-05-22T20:36:18.087Z,16.79
2023-05-22T20:38:46.329Z,16.75
2023-05-22T20:41:14.253Z,16.70
2023-05-22T20:43:43.584Z,16.63
2023-05-22T20:46:12.544Z,16.58
2023-05-22T20:48:46.883Z,16.54
2023-05-22T20:51:21.240Z,16.57
2023-05-22T20:53:53.626Z,16.64
2023-05-22T20:56:21.638Z,16.74
2023-05-22T20:58:49.618Z,16.77
2023-05-22T21:01:17.849Z,16.80
2023-05-22T21:03:45.952Z,16.89
2023-05-22T21:06:14.028Z,16.94
2023-05-22T21:08:42.153Z,17.00
2023-05-22T21:11:10.269Z,17.04
2023-05-22T21:13:38.445Z,16.96
2023-05-22T21:16:07.433Z,16.98
2023-05-22T21:18:35.499Z,17.04
2023-05-22T21:21:03.706Z,17.00
2023-05-22T21:23:31.676Z,16.94
2023-05-22T21:25:59.699Z,16.87
2023-05-22T21:28:28.002Z,16.77
2023-05-22T21:30:56.153Z,16.70
2023-05-22T21:33:24.343Z,16.65
2023-05-22T21:35:52.292Z,16.59
2023-05-22T21:38:20.658Z,16.52
2023-05-22T21:40:48.632Z,16.39
2023-05-22T21:43:16.834Z,16.30
2023-05-22T21:45:45.024Z,16.29
2023-05-22T21:48:13.092Z,16.29
2023-05-22T21:50:41.494Z,16.25
2023-05-22T21:53:09.835Z,16.24
2023-05-22T21:55:37.841Z,16.25
2023-05-22T21:58:05.810Z,16.30
2023-05-22T22:00:33.981Z,16.33
2023-05-22T22:03:02.017Z,16.33
2023-05-22T22:05:30.691Z,16.39
2023-05-22T22:07:58.659Z,16.40
2023-05-22T22:10:26.594Z,16.34
2023-05-22T22:12:54.723Z,16.26
2023-05-22T22:15:22.991Z,16.21
2023-05-22T22:17:52.418Z,16.14
2023-05-22T22:20:30.316Z,16.12
2023-05-22T22:23:07.843Z,16.13
2023-05-22T22:25:36.248Z,16.14
2023-05-22T22:28:04.226Z,16.12
2023-05-22T22:30:32.456Z,16.15
2023-05-22T22:33:00.975Z,16.10
2023-05-22T22:35:29.566Z,16.06
2023-05-22T22:37:57.646Z,15.96
2023-05-22T22:40:26.926Z,15.81
2023-05-22T22:42:55.425Z,15.80
2023-05-22T22:45:23.739Z,15.83
2023-05-22T22:47:53.196Z,15.82
2023-05-22T22:50:21.495Z,15.79
2023-05-22T22:52:49.621Z,15.69
2023-05-22T22:55:18.146Z,15.58
2023-05-22T22:57:50.230Z,15.58
2023-05-22T23:00:19.527Z,15.60
2023-05-22T23:02:47.682Z,15.59
2023-05-22T23:05:20.187Z,15.54
2023-05-22T23:07:48.766Z,15.37
2023-05-22T23:10:16.760Z,15.42
2023-05-22T23:12:44.756Z,15.50
2023-05-22T23:15:13.646Z,15.55
2023-05-22T23:17:42.194Z,15.59
2023-05-22T23:20:10.928Z,15.69
2023-05-22T23:22:38.864Z,15.78
2023-05-22T23:25:07.358Z,15.83
2023-05-22T23:27:36.529Z,15.79
2023-05-22T23:30:05.608Z,15.66
2023-05-22T23:32:33.767Z,15.54
2023-05-22T23:35:01.997Z,15.50
2023-05-22T23:37:29.920Z,15.47
2023-05-22T23:39:57.923Z,15.54
2023-05-22T23:42:25.954Z,15.61
2023-05-22T23:44:53.989Z,15.60
2023-05-22T23:47:22.004Z,15.60
2023-05-22T23:49:50.117Z,15.65
2023-05-22T23:52:18.254Z,15.64
2023-05-22T23:54:46.398Z,15.76
2023-05-22T23:57:14.413Z,15.87
2023-05-22T23:59:43.793Z,15.88
